Liverpool, Illinois
Current Conditions -  °F | °C
As of 9:54 PM on Wednesday 26 Nov 2014 (Local Time) from KPIA Reporting Station
Overcast Overcast  
Wind Chill: 19°   Ceiling: 1900
Heat Index: 28°   Visibility: 8mi
Dew Point: 21°   Wind: 9mph
Humidity: 75%   Direction: 10°N
Pressure: 30.21"   Gusts: NA
Location:  40.39°N, 90°W
Report Text: KPIA 270354Z 01008KT 8SM OVC019 M02/M06 A3021 RMK AO2 SNE06 SLP237 P0000 T10221061
Loading
Personal Weather Stations






























Interactive Weather Map New forecast layout! Learn more

10-Day Weather Forecast

Advertisements
Track Severe Weather on mobile